Time;durP1;ratioP1;P1;durP2;ratioP2;P2;SDS_P1;SDS_P2;PMS_P1;PMS_P2;Temp;Humidity;BMP_temperature;BMP_pressure;BME280_temperature;BME280_humidity;BME280_pressure;Samples;Min_cycle;Max_cycle;Signal;HPM_P1;HPM_P2
2022/01/08 00:00:44;;;;;;;;;;;4.90;99.90;;;;;;2093332;28;19911;-71
2022/01/08 00:01:45;;;;;;;;;;;4.90;99.90;;;;;;2087959;28;19940;-70
2022/01/08 00:02:45;;;;;;;;;;;4.90;99.90;;;;;;2090537;28;19948;-70
2022/01/08 00:03:46;;;;;;;;;;;4.90;99.90;;;;;;2090693;28;20404;-70
2022/01/08 00:04:46;;;;;;;;;;;4.90;99.90;;;;;;2083674;28;19995;-70
2022/01/08 00:05:48;;;;;;;;;;;4.90;99.90;;;;;;2089180;28;19916;-70
2022/01/08 00:06:48;;;;;;;;;;;4.90;99.90;;;;;;2092253;28;19912;-70
2022/01/08 00:07:49;;;;;;;;;;;4.90;99.90;;;;;;2096575;28;19904;-70
2022/01/08 00:08:49;;;;;;;;;;;4.90;99.90;;;;;;2089075;28;19915;-70
2022/01/08 00:09:50;;;;;;;;;;;4.90;99.90;;;;;;2088776;28;19909;-70
2022/01/08 00:10:52;;;;;;;;;;;4.90;99.90;;;;;;2089268;28;19963;-70
2022/01/08 00:11:52;;;;;;;;;;;4.90;99.90;;;;;;2096550;28;19958;-70
2022/01/08 00:12:53;;;;;;;;;;;4.90;99.90;;;;;;2098823;28;19950;-71
2022/01/08 00:13:54;;;;;;;;;;;4.90;99.90;;;;;;2097197;28;19983;-71
2022/01/08 00:14:54;;;;;;;;;;;4.90;99.90;;;;;;2097213;28;19911;-70
2022/01/08 00:15:54;;;;;;;;;;;4.90;99.90;;;;;;2097133;28;19911;-70
2022/01/08 00:16:55;;;;;;;;;;;4.90;99.90;;;;;;2097305;28;19912;-70
2022/01/08 00:17:56;;;;;;;;;;;4.80;99.90;;;;;;2096935;28;20450;-70
2022/01/08 00:18:56;;;;;;;;;;;4.90;99.90;;;;;;2097362;28;19908;-70
2022/01/08 00:19:57;;;;;;;;;;;4.80;99.90;;;;;;2097041;28;19915;-71
2022/01/08 00:20:57;;;;;;;;;;;4.90;99.90;;;;;;2097367;28;20264;-70
2022/01/08 00:21:58;;;;;;;;;;;4.90;99.90;;;;;;2094153;28;19913;-70
2022/01/08 00:22:58;;;;;;;;;;;4.90;99.90;;;;;;2086424;28;19965;-70
2022/01/08 00:23:59;;;;;;;;;;;4.90;99.90;;;;;;2088703;28;20308;-70
2022/01/08 00:24:59;;;;;;;;;;;4.90;99.90;;;;;;2089220;28;20397;-70
2022/01/08 00:26:00;;;;;;;;;;;4.90;99.90;;;;;;2088117;28;19991;-70
2022/01/08 00:27:00;;;;;;;;;;;4.90;99.90;;;;;;2087694;28;19991;-70
2022/01/08 00:28:01;;;;;;;;;;;4.80;99.90;;;;;;2087691;28;19948;-70
2022/01/08 00:29:01;;;;;;;;;;;4.80;99.90;;;;;;2088738;28;19912;-70
2022/01/08 00:30:02;;;;;;;;;;;4.80;99.90;;;;;;2088937;28;19905;-70
2022/01/08 00:31:04;;;;;;;;;;;4.80;99.90;;;;;;2090629;28;20272;-70
2022/01/08 00:32:04;;;;;;;;;;;4.80;99.90;;;;;;2089273;28;19912;-70
2022/01/08 00:33:05;;;;;;;;;;;4.80;99.90;;;;;;2097347;28;19931;-70
2022/01/08 00:34:05;;;;;;;;;;;4.90;99.90;;;;;;2097128;28;19947;-70
2022/01/08 00:35:10;;;;;;;;;;;4.80;99.90;;;;;;2097023;28;19905;-70
2022/01/08 00:36:10;;;;;;;;;;;4.80;99.90;;;;;;2094441;28;19905;-70
2022/01/08 00:37:10;;;;;;;;;;;4.80;99.90;;;;;;2090666;28;19909;-70
2022/01/08 00:38:11;;;;;;;;;;;4.80;99.90;;;;;;2097356;28;19911;-70
2022/01/08 00:39:11;;;;;;;;;;;4.80;99.90;;;;;;2089159;28;19919;-70
2022/01/08 00:40:12;;;;;;;;;;;4.80;99.90;;;;;;2089146;28;19948;-70
2022/01/08 00:41:13;;;;;;;;;;;4.80;99.90;;;;;;2096521;28;19914;-70
2022/01/08 00:42:14;;;;;;;;;;;4.80;99.90;;;;;;2096648;28;20395;-70
2022/01/08 00:43:15;;;;;;;;;;;4.80;99.90;;;;;;2086318;28;19908;-70
2022/01/08 00:44:18;;;;;;;;;;;4.80;99.90;;;;;;2085822;28;20373;-70
2022/01/08 00:45:18;;;;;;;;;;;4.80;99.90;;;;;;2080565;28;19905;-70
2022/01/08 00:46:19;;;;;;;;;;;4.80;99.90;;;;;;2080203;28;19905;-70
2022/01/08 00:47:22;;;;;;;;;;;4.80;99.90;;;;;;2090485;28;19912;-70
2022/01/08 00:48:22;;;;;;;;;;;4.80;99.90;;;;;;2091802;28;20003;-70
2022/01/08 00:49:25;;;;;;;;;;;4.80;99.90;;;;;;2102188;28;20395;-70
2022/01/08 00:50:25;;;;;;;;;;;4.80;99.90;;;;;;2097246;28;19958;-70
2022/01/08 00:51:26;;;;;;;;;;;4.80;99.90;;;;;;2087869;28;20380;-70
2022/01/08 00:52:26;;;;;;;;;;;4.80;99.90;;;;;;2095594;28;19991;-70
2022/01/08 00:53:27;;;;;;;;;;;4.80;99.90;;;;;;2097431;28;19904;-70
2022/01/08 00:54:27;;;;;;;;;;;4.80;99.90;;;;;;2089715;28;20345;-70
2022/01/08 00:55:28;;;;;;;;;;;4.80;99.90;;;;;;2090838;28;19908;-70
2022/01/08 00:56:28;;;;;;;;;;;4.80;99.90;;;;;;2088178;28;19944;-70
2022/01/08 00:57:29;;;;;;;;;;;4.80;99.90;;;;;;2094610;28;19909;-70
2022/01/08 00:58:29;;;;;;;;;;;4.80;99.90;;;;;;2083647;28;20377;-70
2022/01/08 00:59:30;;;;;;;;;;;4.80;99.90;;;;;;2088621;28;19912;-70
2022/01/08 01:00:30;;;;;;;;;;;4.80;99.90;;;;;;2088683;28;19908;-70
2022/01/08 01:01:31;;;;;;;;;;;4.80;99.90;;;;;;2088087;28;20039;-70
2022/01/08 01:02:31;;;;;;;;;;;4.80;99.90;;;;;;2088882;28;19923;-70
2022/01/08 01:03:32;;;;;;;;;;;4.80;99.90;;;;;;2085419;28;19928;-70
2022/01/08 01:04:32;;;;;;;;;;;4.80;99.90;;;;;;2080684;28;19945;-70
2022/01/08 01:05:32;;;;;;;;;;;4.80;99.90;;;;;;2087518;28;19908;-70
2022/01/08 01:06:33;;;;;;;;;;;4.80;99.90;;;;;;2091656;28;19912;-70
2022/01/08 01:07:34;;;;;;;;;;;4.80;99.90;;;;;;2098635;28;19905;-70
2022/01/08 01:08:34;;;;;;;;;;;4.80;99.90;;;;;;2098431;28;19979;-70
2022/01/08 01:09:35;;;;;;;;;;;4.80;99.90;;;;;;2090523;28;19939;-70
2022/01/08 01:10:35;;;;;;;;;;;4.80;99.90;;;;;;2094142;28;19978;-70
2022/01/08 01:11:36;;;;;;;;;;;4.80;99.90;;;;;;2089607;28;20021;-70
2022/01/08 01:12:36;;;;;;;;;;;4.80;99.90;;;;;;2091928;28;19909;-70
2022/01/08 01:13:36;;;;;;;;;;;4.80;99.90;;;;;;2099594;28;19908;-70
2022/01/08 01:14:37;;;;;;;;;;;4.80;99.90;;;;;;2100215;28;19914;-70
2022/01/08 01:15:37;;;;;;;;;;;4.70;99.90;;;;;;2100304;28;19909;-70
2022/01/08 01:16:38;;;;;;;;;;;4.80;99.90;;;;;;2099916;28;19943;-70
2022/01/08 01:17:39;;;;;;;;;;;4.80;99.90;;;;;;2098193;28;19908;-70
2022/01/08 01:18:39;;;;;;;;;;;4.80;99.90;;;;;;2086197;28;19913;-70
2022/01/08 01:19:40;;;;;;;;;;;4.70;99.90;;;;;;2090374;28;19904;-70
2022/01/08 01:20:41;;;;;;;;;;;4.70;99.90;;;;;;2091411;28;19912;-70
2022/01/08 01:21:41;;;;;;;;;;;4.70;99.90;;;;;;2099345;28;19953;-70
2022/01/08 01:23:08;;;;;;;;;;;4.70;99.90;;;;;;2096042;28;20260;-70
2022/01/08 01:24:14;;;;;;;;;;;4.70;99.90;;;;;;2092017;28;20417;-70
2022/01/08 01:25:20;;;;;;;;;;;4.70;99.90;;;;;;2091825;28;19905;-70
2022/01/08 01:26:25;;;;;;;;;;;4.70;99.90;;;;;;2091791;28;19905;-70
2022/01/08 01:29:55;;;;;;;;;;;4.70;99.90;;;;;;2096787;28;20312;-70
2022/01/08 01:42:38;;;;;;;;;;;4.50;99.90;;;;;;2094346;28;19905;-70
2022/01/08 01:47:35;;;;;;;;;;;4.40;99.90;;;;;;2097757;28;20579;-70
2022/01/08 01:48:35;;;;;;;;;;;4.40;99.90;;;;;;2100053;28;20264;-69
2022/01/08 01:49:37;;;;;;;;;;;4.40;99.90;;;;;;2093017;28;19912;-69
2022/01/08 01:50:38;;;;;;;;;;;4.40;99.90;;;;;;2091597;28;20368;-69
2022/01/08 01:51:38;;;;;;;;;;;4.40;99.90;;;;;;2091513;28;20291;-69
2022/01/08 01:52:39;;;;;;;;;;;4.30;99.90;;;;;;2087997;28;19905;-69
2022/01/08 01:53:39;;;;;;;;;;;4.30;99.90;;;;;;2089943;28;19939;-69
2022/01/08 01:54:40;;;;;;;;;;;4.30;99.90;;;;;;2100003;28;19904;-69
2022/01/08 01:55:41;;;;;;;;;;;4.30;99.90;;;;;;2095463;28;20442;-69
2022/01/08 01:56:42;;;;;;;;;;;4.30;99.90;;;;;;2093170;28;19905;-70
2022/01/08 01:57:42;;;;;;;;;;;4.20;99.90;;;;;;2094021;28;20352;-69
2022/01/08 01:58:43;;;;;;;;;;;4.20;99.90;;;;;;2088396;28;19904;-69
2022/01/08 01:59:43;;;;;;;;;;;4.20;99.90;;;;;;2091571;28;20371;-69
2022/01/08 02:00:45;;;;;;;;;;;4.20;99.90;;;;;;2083101;28;20341;-69
2022/01/08 02:01:45;;;;;;;;;;;4.20;99.90;;;;;;2085638;28;19917;-69
2022/01/08 02:02:46;;;;;;;;;;;4.20;99.90;;;;;;2082852;28;20003;-69
2022/01/08 02:03:46;;;;;;;;;;;4.20;99.90;;;;;;2087152;28;19908;-69
2022/01/08 02:04:47;;;;;;;;;;;4.10;99.90;;;;;;2096527;28;20410;-69
2022/01/08 02:05:47;;;;;;;;;;;4.10;99.90;;;;;;2105056;28;20340;-69
2022/01/08 02:06:48;;;;;;;;;;;4.10;99.90;;;;;;2086277;28;19908;-69
2022/01/08 02:07:48;;;;;;;;;;;4.10;99.90;;;;;;2089951;28;19904;-69
2022/01/08 02:08:49;;;;;;;;;;;4.10;99.90;;;;;;2090020;28;19911;-69
2022/01/08 02:09:49;;;;;;;;;;;4.10;99.90;;;;;;2089677;28;19919;-69
2022/01/08 02:10:50;;;;;;;;;;;4.10;99.90;;;;;;2083183;28;19920;-69
2022/01/08 02:11:54;;;;;;;;;;;4.00;99.90;;;;;;2085298;28;19943;-69
2022/01/08 02:12:55;;;;;;;;;;;4.00;99.90;;;;;;2085914;28;19995;-69
2022/01/08 02:14:03;;;;;;;;;;;4.00;99.90;;;;;;2088619;28;19908;-69
2022/01/08 02:15:04;;;;;;;;;;;4.00;99.90;;;;;;2087659;28;19908;-69
2022/01/08 02:16:06;;;;;;;;;;;4.00;99.90;;;;;;2091497;28;19912;-69
2022/01/08 02:17:07;;;;;;;;;;;4.00;99.90;;;;;;2097881;28;19940;-69
2022/01/08 02:18:08;;;;;;;;;;;4.00;99.90;;;;;;2093959;28;19947;-69
2022/01/08 02:19:08;;;;;;;;;;;3.90;99.90;;;;;;2090031;28;19908;-69
2022/01/08 02:20:09;;;;;;;;;;;3.90;99.90;;;;;;2098468;28;19916;-69
2022/01/08 02:21:10;;;;;;;;;;;3.90;99.90;;;;;;2094025;28;19919;-69
2022/01/08 02:22:15;;;;;;;;;;;3.90;99.90;;;;;;2081538;28;19957;-69
2022/01/08 02:23:16;;;;;;;;;;;3.90;99.90;;;;;;2088278;28;19980;-69
2022/01/08 02:24:16;;;;;;;;;;;3.90;99.90;;;;;;2089350;28;20332;-69
2022/01/08 02:25:20;;;;;;;;;;;3.90;99.90;;;;;;2090006;28;20038;-69
2022/01/08 02:26:21;;;;;;;;;;;3.80;99.90;;;;;;2089435;28;19905;-69
2022/01/08 02:27:21;;;;;;;;;;;3.90;99.90;;;;;;2090290;28;19905;-69
2022/01/08 02:28:22;;;;;;;;;;;3.80;99.90;;;;;;2095425;28;19918;-69
2022/01/08 02:29:24;;;;;;;;;;;3.80;99.90;;;;;;2089817;28;19908;-69
2022/01/08 02:30:25;;;;;;;;;;;3.80;99.90;;;;;;2081902;28;19944;-69
2022/01/08 02:31:27;;;;;;;;;;;3.80;99.90;;;;;;2090631;28;19965;-69
2022/01/08 02:32:30;;;;;;;;;;;3.80;99.90;;;;;;2089961;28;20428;-69
2022/01/08 02:33:31;;;;;;;;;;;3.80;99.90;;;;;;2089260;28;20383;-69
2022/01/08 02:34:32;;;;;;;;;;;3.80;99.90;;;;;;2089827;28;19913;-69
2022/01/08 02:35:34;;;;;;;;;;;3.80;99.90;;;;;;2088492;28;19912;-69
2022/01/08 02:36:34;;;;;;;;;;;3.70;99.90;;;;;;2093745;28;20330;-69
2022/01/08 02:37:35;;;;;;;;;;;3.70;99.90;;;;;;2092531;28;19957;-69
2022/01/08 02:38:35;;;;;;;;;;;3.70;99.90;;;;;;2088903;28;19948;-69
2022/01/08 02:39:41;;;;;;;;;;;3.70;99.90;;;;;;2089744;28;20301;-69
2022/01/08 02:40:50;;;;;;;;;;;3.70;99.90;;;;;;2091331;28;19950;-69
2022/01/08 02:41:56;;;;;;;;;;;3.70;99.90;;;;;;2093944;28;19904;-69
2022/01/08 02:43:02;;;;;;;;;;;3.60;99.90;;;;;;2089852;28;19912;-69
2022/01/08 02:44:05;;;;;;;;;;;3.60;99.90;;;;;;2094014;28;20007;-69
2022/01/08 02:45:06;;;;;;;;;;;3.60;99.90;;;;;;2085872;28;19912;-69
2022/01/08 02:46:07;;;;;;;;;;;3.60;99.90;;;;;;2096748;28;19918;-69
2022/01/08 02:47:07;;;;;;;;;;;3.60;99.90;;;;;;2089915;28;19909;-69
2022/01/08 02:48:08;;;;;;;;;;;3.60;99.90;;;;;;2090111;28;19909;-69
2022/01/08 02:49:08;;;;;;;;;;;3.60;99.90;;;;;;2089579;28;19952;-69
2022/01/08 02:50:09;;;;;;;;;;;3.60;99.90;;;;;;2089515;28;19916;-69
2022/01/08 02:51:10;;;;;;;;;;;3.60;99.90;;;;;;2089749;28;19908;-69
2022/01/08 02:52:11;;;;;;;;;;;3.60;99.90;;;;;;2089743;28;20007;-69
2022/01/08 02:53:11;;;;;;;;;;;3.50;99.90;;;;;;2090089;28;19905;-69
2022/01/08 02:54:12;;;;;;;;;;;3.50;99.90;;;;;;2089475;28;20458;-69
2022/01/08 02:55:16;;;;;;;;;;;3.50;99.90;;;;;;2089772;28;19912;-69
2022/01/08 02:56:17;;;;;;;;;;;3.50;99.90;;;;;;2089033;28;20273;-69
2022/01/08 02:57:17;;;;;;;;;;;3.40;99.90;;;;;;2090284;28;19908;-69
2022/01/08 02:58:18;;;;;;;;;;;3.40;99.90;;;;;;2089206;28;19916;-69
2022/01/08 02:59:18;;;;;;;;;;;3.40;99.90;;;;;;2084618;28;20372;-69
2022/01/08 03:00:19;;;;;;;;;;;3.40;99.90;;;;;;2087392;28;19912;-69
2022/01/08 03:01:20;;;;;;;;;;;3.40;99.90;;;;;;2084982;28;19904;-69
2022/01/08 03:02:20;;;;;;;;;;;3.40;99.90;;;;;;2086242;28;20280;-69
2022/01/08 03:03:21;;;;;;;;;;;3.40;99.90;;;;;;2084160;28;20340;-69
2022/01/08 03:04:21;;;;;;;;;;;3.40;99.90;;;;;;2089512;28;20007;-69
2022/01/08 03:05:22;;;;;;;;;;;3.40;99.90;;;;;;2095069;28;20490;-69
2022/01/08 03:06:22;;;;;;;;;;;3.40;99.90;;;;;;2097605;28;19908;-69
2022/01/08 03:07:23;;;;;;;;;;;3.40;99.90;;;;;;2097878;28;19948;-69
2022/01/08 03:08:23;;;;;;;;;;;3.40;99.90;;;;;;2097445;28;19908;-69
2022/01/08 03:09:25;;;;;;;;;;;3.40;99.90;;;;;;2097858;28;19904;-69
2022/01/08 03:10:25;;;;;;;;;;;3.30;99.90;;;;;;2097768;28;19905;-69
2022/01/08 03:11:26;;;;;;;;;;;3.30;99.90;;;;;;2094423;28;19909;-69
2022/01/08 03:12:27;;;;;;;;;;;3.30;99.90;;;;;;2089185;28;19909;-69
2022/01/08 03:13:27;;;;;;;;;;;3.30;99.90;;;;;;2093528;28;19912;-69
2022/01/08 03:14:28;;;;;;;;;;;3.30;99.90;;;;;;2089484;28;20003;-69
2022/01/08 03:15:32;;;;;;;;;;;3.30;99.90;;;;;;2089511;28;19905;-69
2022/01/08 03:16:33;;;;;;;;;;;3.30;99.90;;;;;;2088495;28;19915;-69
2022/01/08 03:17:33;;;;;;;;;;;3.30;99.90;;;;;;2097263;28;19911;-69
2022/01/08 03:18:35;;;;;;;;;;;3.30;99.90;;;;;;2097298;28;20422;-69
2022/01/08 03:19:37;;;;;;;;;;;3.30;99.90;;;;;;2089666;28;19908;-69
2022/01/08 03:20:46;;;;;;;;;;;3.30;99.90;;;;;;2089291;28;20263;-69
2022/01/08 03:21:52;;;;;;;;;;;3.30;99.90;;;;;;2089429;28;20249;-69
2022/01/08 03:23:00;;;;;;;;;;;3.30;99.90;;;;;;2093888;28;20028;-69
2022/01/08 03:24:01;;;;;;;;;;;3.30;99.90;;;;;;2097894;28;20004;-69
2022/01/08 03:25:03;;;;;;;;;;;3.30;99.90;;;;;;2097673;28;19999;-69
2022/01/08 03:26:04;;;;;;;;;;;3.30;99.90;;;;;;2096772;28;19908;-69
2022/01/08 03:27:04;;;;;;;;;;;3.30;99.90;;;;;;2088734;28;19940;-69
2022/01/08 03:28:04;;;;;;;;;;;3.30;99.90;;;;;;2089505;28;19999;-69
2022/01/08 03:29:05;;;;;;;;;;;3.20;99.90;;;;;;2089308;28;20007;-69
2022/01/08 03:30:06;;;;;;;;;;;3.20;99.90;;;;;;2089637;28;19979;-69
2022/01/08 03:31:06;;;;;;;;;;;3.20;99.90;;;;;;2089801;28;19969;-69
2022/01/08 03:32:07;;;;;;;;;;;3.20;99.90;;;;;;2090111;28;19924;-69
2022/01/08 03:33:07;;;;;;;;;;;3.20;99.90;;;;;;2105421;28;19950;-69
2022/01/08 03:34:08;;;;;;;;;;;3.20;99.90;;;;;;2106064;28;19947;-69
2022/01/08 03:35:08;;;;;;;;;;;3.20;99.90;;;;;;2097622;28;19904;-69
2022/01/08 03:36:09;;;;;;;;;;;3.20;99.90;;;;;;2097700;28;19931;-69
2022/01/08 03:37:10;;;;;;;;;;;3.10;99.90;;;;;;2096342;28;19905;-69
2022/01/08 03:38:10;;;;;;;;;;;3.10;99.90;;;;;;2097710;28;19908;-68
2022/01/08 03:39:11;;;;;;;;;;;3.20;99.90;;;;;;2097579;28;19908;-69
2022/01/08 03:40:11;;;;;;;;;;;3.10;99.90;;;;;;2097541;28;19911;-69
2022/01/08 03:41:12;;;;;;;;;;;3.10;99.90;;;;;;2093676;28;19915;-69
2022/01/08 03:42:12;;;;;;;;;;;3.10;99.90;;;;;;2092312;28;19912;-68
2022/01/08 03:43:13;;;;;;;;;;;3.10;99.90;;;;;;2097478;28;19915;-69
2022/01/08 03:44:13;;;;;;;;;;;3.10;99.90;;;;;;2097672;28;19908;-69
2022/01/08 03:45:14;;;;;;;;;;;3.10;99.90;;;;;;2097406;28;19954;-69
2022/01/08 03:46:18;;;;;;;;;;;3.10;99.90;;;;;;2097680;28;20003;-69
2022/01/08 03:49:31;;;;;;;;;;;3.10;99.90;;;;;;2097635;28;19905;-69
2022/01/08 03:50:32;;;;;;;;;;;3.10;99.90;;;;;;2097420;28;19947;-69
2022/01/08 03:51:32;;;;;;;;;;;3.10;99.90;;;;;;2095385;28;19908;-69
2022/01/08 03:52:33;;;;;;;;;;;3.10;99.90;;;;;;2089270;28;19911;-69
2022/01/08 03:53:34;;;;;;;;;;;3.10;99.90;;;;;;2089520;28;19951;-69
2022/01/08 03:54:34;;;;;;;;;;;3.00;99.90;;;;;;2089392;28;19916;-69
2022/01/08 03:55:34;;;;;;;;;;;3.10;99.90;;;;;;2088728;28;19946;-69
2022/01/08 03:56:35;;;;;;;;;;;3.00;99.90;;;;;;2088665;28;19950;-69
2022/01/08 03:57:35;;;;;;;;;;;3.00;99.90;;;;;;2089190;28;20367;-69
2022/01/08 03:58:36;;;;;;;;;;;3.00;99.90;;;;;;2089648;28;19908;-69
2022/01/08 03:59:36;;;;;;;;;;;3.00;99.90;;;;;;2089246;28;19916;-69
2022/01/08 04:00:37;;;;;;;;;;;3.00;99.90;;;;;;2096744;28;19912;-69
2022/01/08 04:01:37;;;;;;;;;;;3.00;99.90;;;;;;2095927;28;19939;-69
2022/01/08 04:02:38;;;;;;;;;;;3.00;99.90;;;;;;2084175;28;19952;-69
2022/01/08 04:03:38;;;;;;;;;;;3.00;99.90;;;;;;2086422;28;19905;-69
2022/01/08 04:04:39;;;;;;;;;;;3.00;99.90;;;;;;2084869;28;19905;-69
2022/01/08 04:05:39;;;;;;;;;;;3.00;99.90;;;;;;2089243;28;19913;-69
2022/01/08 04:06:40;;;;;;;;;;;3.00;99.90;;;;;;2089747;28;20368;-69
2022/01/08 04:07:40;;;;;;;;;;;3.00;99.90;;;;;;2090590;28;19989;-69
2022/01/08 04:08:40;;;;;;;;;;;3.00;99.90;;;;;;2092894;28;19978;-69
2022/01/08 04:09:41;;;;;;;;;;;3.00;99.90;;;;;;2090711;28;19908;-69
2022/01/08 04:10:42;;;;;;;;;;;3.00;99.90;;;;;;2090290;28;19952;-69
2022/01/08 04:11:42;;;;;;;;;;;3.00;99.90;;;;;;2090552;28;19904;-69
2022/01/08 04:12:47;;;;;;;;;;;3.00;99.90;;;;;;2090632;28;19911;-69
2022/01/08 04:13:48;;;;;;;;;;;3.00;99.90;;;;;;2098936;28;19908;-69
2022/01/08 04:14:55;;;;;;;;;;;3.00;99.90;;;;;;2095380;28;20591;-69
2022/01/08 04:16:00;;;;;;;;;;;3.00;99.90;;;;;;2098829;28;19904;-69
2022/01/08 04:17:01;;;;;;;;;;;3.00;99.90;;;;;;2098575;28;19908;-69
2022/01/08 04:18:01;;;;;;;;;;;3.00;99.90;;;;;;2098844;28;20361;-69
2022/01/08 04:19:02;;;;;;;;;;;3.00;99.90;;;;;;2091634;28;19909;-69
2022/01/08 04:20:03;;;;;;;;;;;3.00;99.90;;;;;;2097853;28;20339;-69
2022/01/08 04:22:24;;;;;;;;;;;3.00;99.90;;;;;;2090519;28;19904;-68
2022/01/08 04:23:24;;;;;;;;;;;3.00;99.90;;;;;;2090320;28;20295;-68
2022/01/08 04:24:25;;;;;;;;;;;3.00;99.90;;;;;;2090012;28;20007;-69
2022/01/08 04:25:26;;;;;;;;;;;3.00;99.90;;;;;;2090518;28;19904;-68
2022/01/08 04:26:27;;;;;;;;;;;3.00;99.90;;;;;;2090067;28;19934;-68
2022/01/08 04:27:28;;;;;;;;;;;3.00;99.90;;;;;;2090186;28;20394;-68
2022/01/08 04:28:28;;;;;;;;;;;3.00;99.90;;;;;;2090291;28;20257;-68
2022/01/08 04:29:29;;;;;;;;;;;3.00;99.90;;;;;;2095134;28;19912;-68
2022/01/08 04:30:29;;;;;;;;;;;3.00;99.90;;;;;;2098882;28;20256;-68
2022/01/08 04:31:29;;;;;;;;;;;3.00;99.90;;;;;;2098377;28;20406;-68
2022/01/08 04:32:30;;;;;;;;;;;3.00;99.90;;;;;;2098784;28;19904;-69
2022/01/08 04:33:30;;;;;;;;;;;3.00;99.90;;;;;;2098643;28;19904;-69
2022/01/08 04:34:31;;;;;;;;;;;3.00;99.90;;;;;;2097907;28;19966;-69
2022/01/08 04:35:31;;;;;;;;;;;3.00;99.90;;;;;;2098505;28;19977;-68
2022/01/08 04:36:32;;;;;;;;;;;3.00;99.90;;;;;;2098373;28;19908;-68
2022/01/08 04:37:32;;;;;;;;;;;3.00;99.90;;;;;;2098584;28;20241;-68
2022/01/08 04:38:33;;;;;;;;;;;3.00;99.90;;;;;;2096078;28;19911;-68
2022/01/08 04:39:34;;;;;;;;;;;3.00;99.90;;;;;;2090370;28;19905;-68
2022/01/08 04:40:35;;;;;;;;;;;3.00;99.90;;;;;;2090349;28;20553;-68
2022/01/08 04:41:35;;;;;;;;;;;3.00;99.90;;;;;;2090270;28;19904;-68
2022/01/08 04:42:35;;;;;;;;;;;3.00;99.90;;;;;;2090387;28;19908;-68
2022/01/08 04:43:37;;;;;;;;;;;3.00;99.90;;;;;;2090236;28;19913;-68
2022/01/08 04:44:38;;;;;;;;;;;3.00;99.90;;;;;;2090383;28;19959;-69
2022/01/08 04:45:38;;;;;;;;;;;3.00;99.90;;;;;;2090310;28;20002;-69
2022/01/08 04:46:41;;;;;;;;;;;3.00;99.90;;;;;;2089562;28;19995;-69
2022/01/08 04:47:41;;;;;;;;;;;3.00;99.90;;;;;;2088195;28;20261;-69
2022/01/08 04:48:42;;;;;;;;;;;3.00;99.90;;;;;;2086931;28;19939;-69
2022/01/08 04:49:42;;;;;;;;;;;3.00;99.90;;;;;;2085117;28;19912;-69
2022/01/08 04:50:42;;;;;;;;;;;3.00;99.90;;;;;;2089947;28;19947;-68
2022/01/08 04:51:43;;;;;;;;;;;3.00;99.90;;;;;;2090014;28;19904;-68
2022/01/08 04:52:43;;;;;;;;;;;3.00;99.90;;;;;;2090375;28;19909;-68
2022/01/08 04:53:44;;;;;;;;;;;2.90;99.90;;;;;;2094806;28;19915;-68
2022/01/08 04:54:44;;;;;;;;;;;2.90;99.90;;;;;;2098686;28;19904;-68
2022/01/08 04:55:45;;;;;;;;;;;2.90;99.90;;;;;;2085790;28;19981;-68
2022/01/08 04:56:45;;;;;;;;;;;3.00;99.90;;;;;;2089103;28;19991;-68
2022/01/08 04:57:46;;;;;;;;;;;3.00;99.90;;;;;;2090301;28;19904;-68
2022/01/08 04:58:47;;;;;;;;;;;2.90;99.90;;;;;;2096481;28;19905;-68
2022/01/08 04:59:47;;;;;;;;;;;2.90;99.90;;;;;;2089497;28;19936;-68
2022/01/08 05:00:48;;;;;;;;;;;2.90;99.90;;;;;;2092610;28;19931;-69
2022/01/08 05:01:48;;;;;;;;;;;2.90;99.90;;;;;;2088419;28;19905;-69
2022/01/08 05:02:49;;;;;;;;;;;2.90;99.90;;;;;;2089400;28;20017;-68
2022/01/08 05:03:49;;;;;;;;;;;2.90;99.90;;;;;;2089276;28;19959;-68
2022/01/08 05:04:50;;;;;;;;;;;2.90;99.90;;;;;;2089600;28;20572;-68
2022/01/08 05:05:50;;;;;;;;;;;2.90;99.90;;;;;;2090166;28;19916;-68
2022/01/08 05:06:51;;;;;;;;;;;2.90;99.90;;;;;;2088114;28;19909;-68
2022/01/08 05:07:51;;;;;;;;;;;2.90;99.90;;;;;;2088797;28;20252;-68
2022/01/08 05:08:52;;;;;;;;;;;2.90;99.90;;;;;;2088741;28;19905;-69
2022/01/08 05:09:52;;;;;;;;;;;2.90;99.90;;;;;;2088900;28;19911;-69
2022/01/08 05:10:53;;;;;;;;;;;2.90;99.90;;;;;;2088698;28;19908;-68
2022/01/08 05:11:53;;;;;;;;;;;2.90;99.90;;;;;;2088457;28;19905;-68
2022/01/08 05:12:54;;;;;;;;;;;2.90;99.90;;;;;;2085999;28;20039;-68
2022/01/08 05:13:54;;;;;;;;;;;2.90;99.90;;;;;;2097413;28;19904;-68
2022/01/08 05:14:56;;;;;;;;;;;2.90;99.90;;;;;;2096805;28;19908;-68
2022/01/08 05:15:57;;;;;;;;;;;2.90;99.90;;;;;;2089062;28;19912;-68
2022/01/08 05:17:00;;;;;;;;;;;2.90;99.90;;;;;;2088425;28;19944;-68
2022/01/08 05:18:02;;;;;;;;;;;2.80;99.90;;;;;;2088946;28;19905;-68
2022/01/08 05:19:03;;;;;;;;;;;2.80;99.90;;;;;;2088711;28;19908;-68
2022/01/08 05:20:08;;;;;;;;;;;2.90;99.90;;;;;;2088754;28;19916;-68
2022/01/08 05:21:20;;;;;;;;;;;2.80;99.90;;;;;;2089552;28;19913;-68
2022/01/08 05:22:24;;;;;;;;;;;2.90;99.90;;;;;;2088936;28;20300;-70
2022/01/08 05:23:25;;;;;;;;;;;2.90;99.90;;;;;;2088528;28;19904;-68
2022/01/08 05:24:25;;;;;;;;;;;2.90;99.90;;;;;;2088809;28;19992;-68
2022/01/08 05:25:27;;;;;;;;;;;2.80;99.90;;;;;;2088448;28;20024;-68
2022/01/08 05:26:28;;;;;;;;;;;2.90;99.90;;;;;;2095692;28;19961;-68
2022/01/08 05:27:28;;;;;;;;;;;2.80;99.90;;;;;;2096363;28;19911;-68
2022/01/08 05:28:29;;;;;;;;;;;2.80;99.90;;;;;;2104791;28;19911;-68
2022/01/08 05:29:30;;;;;;;;;;;2.80;99.90;;;;;;2099039;28;20058;-68
2022/01/08 05:30:30;;;;;;;;;;;2.80;99.90;;;;;;2080629;28;20353;-68
2022/01/08 05:31:31;;;;;;;;;;;2.80;99.90;;;;;;2088181;28;19916;-68
2022/01/08 05:32:31;;;;;;;;;;;2.80;99.90;;;;;;2088689;28;19914;-68
2022/01/08 05:33:32;;;;;;;;;;;2.80;99.90;;;;;;2088712;28;19909;-68
2022/01/08 05:34:32;;;;;;;;;;;2.80;99.90;;;;;;2088770;28;19943;-68
2022/01/08 05:35:32;;;;;;;;;;;2.80;99.90;;;;;;2089870;28;19912;-68
2022/01/08 05:36:33;;;;;;;;;;;2.80;99.90;;;;;;2090353;28;20407;-68
2022/01/08 05:37:35;;;;;;;;;;;2.70;99.90;;;;;;2093700;28;19925;-68
2022/01/08 05:38:35;;;;;;;;;;;2.70;99.90;;;;;;2097208;28;19904;-68
2022/01/08 05:39:36;;;;;;;;;;;2.70;99.90;;;;;;2096777;28;19999;-68
2022/01/08 05:40:37;;;;;;;;;;;2.70;99.90;;;;;;2096806;28;19915;-68
2022/01/08 05:41:37;;;;;;;;;;;2.70;99.90;;;;;;2097183;28;19920;-68
2022/01/08 05:42:38;;;;;;;;;;;2.70;99.90;;;;;;2096830;28;19909;-68
2022/01/08 05:43:38;;;;;;;;;;;2.70;99.90;;;;;;2097032;28;19958;-68
2022/01/08 05:44:39;;;;;;;;;;;2.70;99.90;;;;;;2096772;28;19911;-68
2022/01/08 05:45:39;;;;;;;;;;;2.70;99.90;;;;;;2092249;28;19909;-69
2022/01/08 05:46:44;;;;;;;;;;;2.60;99.90;;;;;;2087853;28;19927;-68
2022/01/08 05:47:44;;;;;;;;;;;2.70;99.90;;;;;;2080479;28;19940;-68
2022/01/08 05:48:45;;;;;;;;;;;2.70;99.90;;;;;;2083480;28;19912;-68
2022/01/08 05:49:45;;;;;;;;;;;2.70;99.90;;;;;;2089212;28;19963;-68
2022/01/08 05:50:46;;;;;;;;;;;2.70;99.90;;;;;;2095061;28;20257;-68
2022/01/08 05:51:46;;;;;;;;;;;2.70;99.90;;;;;;2096980;28;19911;-68
2022/01/08 05:52:48;;;;;;;;;;;2.70;99.90;;;;;;2096929;28;20004;-68
2022/01/08 05:53:49;;;;;;;;;;;2.70;99.90;;;;;;2097100;28;20268;-68
2022/01/08 05:54:49;;;;;;;;;;;2.70;99.90;;;;;;2104607;28;20006;-68
2022/01/08 05:55:49;;;;;;;;;;;2.70;99.90;;;;;;2098822;28;19913;-68
2022/01/08 05:56:51;;;;;;;;;;;2.70;99.90;;;;;;2091070;28;19905;-68
2022/01/08 05:57:51;;;;;;;;;;;2.70;99.90;;;;;;2104745;28;19950;-68
2022/01/08 05:58:52;;;;;;;;;;;2.70;99.90;;;;;;2105893;28;19915;-68
2022/01/08 05:59:52;;;;;;;;;;;2.70;99.90;;;;;;2098480;28;19911;-68
2022/01/08 06:00:53;;;;;;;;;;;2.70;99.90;;;;;;2098332;28;19996;-68
2022/01/08 06:01:54;;;;;;;;;;;2.70;99.90;;;;;;2096214;28;19908;-68
2022/01/08 06:02:54;;;;;;;;;;;2.70;99.90;;;;;;2090138;28;19907;-68
2022/01/08 06:03:55;;;;;;;;;;;2.70;99.90;;;;;;2089137;28;19909;-68
2022/01/08 06:04:55;;;;;;;;;;;2.70;99.90;;;;;;2086313;28;19912;-68
2022/01/08 06:05:56;;;;;;;;;;;2.70;99.90;;;;;;2091253;28;19955;-68
2022/01/08 06:06:56;;;;;;;;;;;2.70;99.90;;;;;;2097314;28;19904;-69
2022/01/08 06:07:57;;;;;;;;;;;2.70;99.90;;;;;;2099899;28;19958;-68
2022/01/08 06:08:57;;;;;;;;;;;2.60;99.90;;;;;;2099790;28;20650;-68
2022/01/08 06:09:57;;;;;;;;;;;2.70;99.90;;;;;;2099814;28;19908;-68
2022/01/08 06:10:58;;;;;;;;;;;2.60;99.90;;;;;;2099715;28;20011;-68
2022/01/08 06:11:59;;;;;;;;;;;2.70;99.90;;;;;;2091275;28;19905;-68
2022/01/08 06:13:00;;;;;;;;;;;2.60;99.90;;;;;;2090815;28;19958;-68
2022/01/08 06:14:02;;;;;;;;;;;2.60;99.90;;;;;;2091398;28;19951;-68
2022/01/08 06:15:03;;;;;;;;;;;2.60;99.90;;;;;;2091352;28;19927;-68
2022/01/08 06:16:03;;;;;;;;;;;2.60;99.90;;;;;;2092575;28;19975;-68
2022/01/08 06:17:04;;;;;;;;;;;2.60;99.90;;;;;;2099542;28;19909;-68
2022/01/08 06:18:04;;;;;;;;;;;2.60;99.90;;;;;;2099771;28;20371;-68
2022/01/08 06:19:06;;;;;;;;;;;2.60;99.90;;;;;;2098731;28;19951;-68
2022/01/08 06:20:07;;;;;;;;;;;2.60;99.90;;;;;;2090846;28;20422;-68
2022/01/08 06:21:07;;;;;;;;;;;2.60;99.90;;;;;;2089687;28;20398;-68
2022/01/08 06:22:08;;;;;;;;;;;2.60;99.90;;;;;;2087778;28;20307;-68
2022/01/08 06:23:08;;;;;;;;;;;2.60;99.90;;;;;;2097157;28;19904;-68